Time;durP1;ratioP1;P1;durP2;ratioP2;P2;SDS_P1;SDS_P2;PMS_P1;PMS_P2;Temp;Humidity;BMP_temperature;BMP_pressure;BME280_temperature;BME280_humidity;BME280_pressure;Samples;Min_cycle;Max_cycle;Signal;HPM_P1;HPM_P2
2021/09/02 00:02:22;;;;;;;;;15.25;13.25;;;;;15.56;65.56;102194.09;4910124;28;45616;-74
2021/09/02 00:04:47;;;;;;;;;16.75;12.50;;;;;15.56;65.43;102202.09;4912863;28;45482;-74
2021/09/02 00:07:13;;;;;;;;;16.50;12.75;;;;;15.53;65.36;102201.53;4922244;28;45530;-73
2021/09/02 00:09:38;;;;;;;;;12.25;11.50;;;;;15.48;66.49;102194.84;4917118;28;45428;-73
2021/09/02 00:12:04;;;;;;;;;15.00;12.50;;;;;15.44;65.88;102197.94;4912486;28;45656;-73
2021/09/02 00:14:29;;;;;;;;;15.50;15.00;;;;;15.45;65.89;102199.59;4922614;28;45471;-73
2021/09/02 00:16:55;;;;;;;;;17.75;15.00;;;;;15.44;65.79;102197.94;4928486;28;46203;-74
2021/09/02 00:19:21;;;;;;;;;13.75;10.75;;;;;15.43;65.45;102183.78;4914568;28;45373;-73
2021/09/02 00:21:46;;;;;;;;;18.25;14.00;;;;;15.41;65.86;102187.59;4910867;28;49430;-74
2021/09/02 00:24:12;;;;;;;;;16.75;14.50;;;;;15.39;66.66;102185.06;4909382;28;45519;-75
2021/09/02 00:26:40;;;;;;;;;15.00;13.75;;;;;15.37;65.96;102188.84;4907086;28;46073;-76
2021/09/02 00:29:06;;;;;;;;;16.25;13.25;;;;;15.36;65.63;102181.84;4915051;28;45511;-75
2021/09/02 00:31:31;;;;;;;;;17.50;13.25;;;;;15.35;67.42;102188.16;4911334;28;45622;-76
2021/09/02 00:33:57;;;;;;;;;20.75;14.00;;;;;15.34;65.83;102181.16;4910476;28;46139;-75
2021/09/02 00:36:22;;;;;;;;;13.25;11.00;;;;;15.33;65.94;102180.31;4908541;28;45404;-76
2021/09/02 00:38:50;;;;;;;;;18.25;14.75;;;;;15.33;65.79;102176.78;4906275;28;45421;-73
2021/09/02 00:41:16;;;;;;;;;16.25;12.25;;;;;15.31;65.86;102166.31;4926325;28;45361;-75
2021/09/02 00:43:42;;;;;;;;;15.25;11.75;;;;;15.30;66.07;102167.28;4909684;28;45864;-75
2021/09/02 00:46:08;;;;;;;;;12.75;11.25;;;;;15.27;66.24;102165.75;4910106;28;45559;-74
2021/09/02 00:48:34;;;;;;;;;16.25;15.00;;;;;15.25;66.21;102165.03;4909064;28;45590;-74
2021/09/02 00:51:01;;;;;;;;;18.75;14.25;;;;;15.26;66.17;102168.56;4907294;28;45786;-75
2021/09/02 00:53:28;;;;;;;;;19.25;13.75;;;;;15.23;66.44;102163.50;4907755;28;45479;-74
2021/09/02 00:55:53;;;;;;;;;15.25;13.25;;;;;15.21;66.36;102161.00;4922814;28;45471;-74
2021/09/02 00:58:20;;;;;;;;;19.25;13.50;;;;;15.18;66.26;102166.63;4915877;28;45479;-74
2021/09/02 01:00:46;;;;;;;;;15.25;13.25;;;;;15.16;67.08;102170.44;4916500;28;45395;-75
2021/09/02 01:03:11;;;;;;;;;15.50;13.50;;;;;15.13;66.66;102170.69;4919879;28;45388;-74
2021/09/02 01:05:36;;;;;;;;;17.00;14.75;;;;;15.11;67.17;102165.53;4905785;28;46526;-75
2021/09/02 01:08:04;;;;;;;;;16.25;13.25;;;;;15.08;66.81;102168.47;4911854;28;45375;-74
2021/09/02 01:10:30;;;;;;;;;16.00;11.75;;;;;15.06;66.68;102173.13;4909280;28;45462;-75
2021/09/02 01:12:55;;;;;;;;;16.75;16.00;;;;;15.04;66.84;102170.59;4908809;28;46073;-74
2021/09/02 01:15:26;;;;;;;;;22.00;17.00;;;;;15.04;66.89;102170.59;4911694;28;45517;-74
2021/09/02 01:17:55;;;;;;;;;18.00;17.00;;;;;15.03;67.36;102173.38;4935493;28;45610;-75
2021/09/02 01:20:24;;;;;;;;;16.75;13.25;;;;;14.99;67.33;102182.66;4915359;28;45601;-75
2021/09/02 01:22:51;;;;;;;;;19.00;15.25;;;;;14.96;67.23;102166.94;4910742;28;45566;-74
2021/09/02 01:25:26;;;;;;;;;12.75;10.50;;;;;14.94;67.30;102158.28;4910107;28;46364;-74
2021/09/02 01:27:58;;;;;;;;;18.50;13.75;;;;;14.91;67.39;102151.44;4910820;28;46160;-75
2021/09/02 01:30:24;;;;;;;;;10.25;9.75;;;;;14.89;67.45;102156.06;4910524;28;45388;-74
2021/09/02 01:32:52;;;;;;;;;18.50;16.00;;;;;14.89;67.53;102155.22;4904426;28;45440;-74
2021/09/02 01:35:19;;;;;;;;;14.25;14.25;;;;;14.88;67.54;102159.69;4908743;28;48528;-74
2021/09/02 01:37:52;;;;;;;;;19.00;15.25;;;;;14.84;67.70;102148.50;4913836;28;46080;-74
2021/09/02 01:40:28;;;;;;;;;15.75;14.25;;;;;14.83;67.72;102145.97;4907998;28;45564;-74
2021/09/02 01:42:54;;;;;;;;;17.00;16.75;;;;;14.81;67.55;102143.47;4908137;28;45636;-74
2021/09/02 01:45:19;;;;;;;;;16.75;15.00;;;;;14.81;67.49;102139.94;4909991;28;46147;-74
2021/09/02 01:47:45;;;;;;;;;16.75;14.75;;;;;14.80;67.81;102148.91;4923227;28;46581;-74
2021/09/02 01:50:17;;;;;;;;;16.50;15.25;;;;;14.80;67.71;102140.94;4927760;28;45598;-74
2021/09/02 01:52:44;;;;;;;;;18.75;16.25;;;;;14.78;67.77;102137.56;4911011;28;45539;-73
2021/09/02 01:55:10;;;;;;;;;21.25;15.75;;;;;14.75;68.05;102136.03;4908449;28;47138;-75
2021/09/02 01:57:37;;;;;;;;;13.75;11.50;;;;;14.74;68.16;102142.34;4916035;28;45576;-74
2021/09/02 02:00:08;;;;;;;;;17.50;14.75;;;;;14.70;68.10;102135.63;4919062;28;45424;-74
2021/09/02 02:02:33;;;;;;;;;21.75;18.00;;;;;14.69;68.41;102144.59;4906686;28;45484;-74
2021/09/02 02:04:59;;;;;;;;;19.00;13.50;;;;;14.67;68.77;102138.56;4926235;28;46157;-74
2021/09/02 02:07:24;;;;;;;;;16.75;14.50;;;;;14.66;68.62;102149.34;4909925;28;53920;-74
2021/09/02 02:09:49;;;;;;;;;22.50;17.00;;;;;14.64;68.45;102144.19;4908544;28;45675;-74
2021/09/02 02:12:15;;;;;;;;;13.50;12.50;;;;;14.63;68.49;102145.16;4907460;28;46580;-74
2021/09/02 02:14:40;;;;;;;;;14.50;13.00;;;;;14.60;68.27;102140.13;4906338;28;45427;-75
2021/09/02 02:17:06;;;;;;;;;22.50;17.25;;;;;14.59;68.40;102130.47;4929416;28;45407;-74
2021/09/02 02:19:31;;;;;;;;;16.25;14.50;;;;;14.58;68.42;102131.44;4910237;28;45565;-74
2021/09/02 02:21:57;;;;;;;;;16.50;13.50;;;;;14.56;68.52;102123.63;4909622;28;45718;-74
2021/09/02 02:24:22;;;;;;;;;16.75;14.50;;;;;14.55;68.39;102126.41;4909410;28;48109;-74
2021/09/02 02:26:48;;;;;;;;;24.50;16.50;;;;;14.54;68.94;102124.72;4904029;28;45630;-74
2021/09/02 02:29:13;;;;;;;;;18.00;14.50;;;;;14.51;68.44;102115.16;4912897;28;45720;-74
2021/09/02 02:31:38;;;;;;;;;20.00;16.00;;;;;14.50;68.66;102110.00;4922145;28;45287;-74
2021/09/02 02:34:04;;;;;;;;;22.00;16.00;;;;;14.45;69.02;102112.25;4912442;28;46679;-74
2021/09/02 02:36:29;;;;;;;;;22.00;16.25;;;;;14.45;68.76;102115.75;4913020;28;45632;-74
2021/09/02 02:38:55;;;;;;;;;20.00;14.75;;;;;14.45;68.85;102120.22;4904632;28;45512;-74
2021/09/02 02:41:20;;;;;;;;;20.25;17.00;;;;;14.44;68.95;102119.41;4908274;28;45785;-74
2021/09/02 02:43:46;;;;;;;;;16.25;15.00;;;;;14.43;69.15;102115.03;4922700;28;47295;-75
2021/09/02 02:46:12;;;;;;;;;20.50;15.50;;;;;14.41;69.24;102112.53;4911782;28;45544;-74
2021/09/02 02:48:37;;;;;;;;;23.50;20.00;;;;;14.40;69.10;102107.34;4908231;28;45697;-74
2021/09/02 02:51:02;;;;;;;;;21.00;16.50;;;;;14.38;68.70;102112.78;4906082;28;45522;-74
2021/09/02 02:53:28;;;;;;;;;17.00;15.00;;;;;14.37;69.71;102119.09;4905012;28;46949;-74
2021/09/02 02:55:53;;;;;;;;;29.75;18.50;;;;;14.36;69.15;102116.56;4911481;28;50066;-74
2021/09/02 02:58:18;;;;;;;;;21.50;18.00;;;;;14.33;69.35;102111.53;4914598;28;45484;-74
2021/09/02 03:00:44;;;;;;;;;19.25;15.25;;;;;14.32;69.36;102116.03;4910590;28;45537;-74
2021/09/02 03:03:09;;;;;;;;;24.00;19.50;;;;;14.32;69.73;102105.38;4905313;28;49080;-74
2021/09/02 03:05:34;;;;;;;;;22.75;16.75;;;;;14.29;69.34;102102.16;4919356;28;45728;-75
2021/09/02 03:08:00;;;;;;;;;20.25;17.50;;;;;14.30;69.33;102101.19;4910375;28;45557;-74
2021/09/02 03:10:25;;;;;;;;;18.25;15.50;;;;;14.30;69.32;102095.88;4914153;28;45458;-74
2021/09/02 03:12:50;;;;;;;;;20.00;18.00;;;;;14.28;69.51;102103.16;4907616;28;45559;-74
2021/09/02 03:15:19;;;;;;;;;16.75;15.25;;;;;14.27;69.89;102097.00;4919351;28;45431;-74
2021/09/02 03:17:44;;;;;;;;;30.50;18.50;;;;;14.25;70.01;102101.59;4929457;28;45485;-74
2021/09/02 03:20:10;;;;;;;;;23.00;19.00;;;;;14.24;69.35;102102.56;4910667;28;45463;-74
2021/09/02 03:22:35;;;;;;;;;22.75;17.25;;;;;14.24;70.19;102104.41;4905853;28;45559;-74
2021/09/02 03:25:01;;;;;;;;;24.75;18.00;;;;;14.20;69.59;102115.31;4908003;28;45519;-74
2021/09/02 03:27:26;;;;;;;;;19.75;16.75;;;;;14.19;69.62;102102.16;4909475;28;45351;-74
2021/09/02 03:29:51;;;;;;;;;19.00;14.75;;;;;14.17;69.47;102090.84;4905029;28;45562;-74
2021/09/02 03:32:17;;;;;;;;;21.50;17.50;;;;;14.13;69.98;102084.13;4923181;28;45559;-74
2021/09/02 03:34:42;;;;;;;;;20.50;16.75;;;;;14.12;70.64;102085.06;4908295;28;45516;-74
2021/09/02 03:37:07;;;;;;;;;21.25;18.00;;;;;14.13;70.39;102089.44;4906660;28;46209;-74
2021/09/02 03:39:33;;;;;;;;;23.00;19.50;;;;;14.11;69.96;102086.06;4912810;28;54212;-74
2021/09/02 03:41:58;;;;;;;;;19.75;15.75;;;;;14.10;70.05;102089.72;4916747;28;46425;-74
2021/09/02 03:44:24;;;;;;;;;25.25;21.25;;;;;14.09;70.23;102088.84;4905221;28;45453;-74
2021/09/02 03:46:49;;;;;;;;;17.75;14.25;;;;;14.10;70.31;102084.41;4909476;28;45418;-74
2021/09/02 03:49:14;;;;;;;;;23.25;17.25;;;;;14.09;70.36;102080.06;4911746;28;45920;-74
2021/09/02 03:51:39;;;;;;;;;20.50;17.00;;;;;14.09;70.36;102080.06;4910220;28;46218;-74
2021/09/02 03:54:05;;;;;;;;;24.50;18.25;;;;;14.09;70.42;102074.72;4908160;28;45523;-74
2021/09/02 03:56:30;;;;;;;;;25.75;19.50;;;;;14.07;70.53;102068.72;4921676;28;45479;-74
2021/09/02 03:58:56;;;;;;;;;20.50;16.75;;;;;14.07;70.18;102058.94;4913275;28;45565;-74
2021/09/02 04:01:22;;;;;;;;;25.25;22.50;;;;;14.06;70.47;102067.88;4908905;28;46350;-74
2021/09/02 04:03:48;;;;;;;;;26.75;20.50;;;;;14.05;71.85;102076.84;4909517;28;45890;-74
2021/09/02 04:06:13;;;;;;;;;25.00;19.00;;;;;14.02;70.87;102077.13;4908773;28;45354;-74
2021/09/02 04:08:38;;;;;;;;;21.25;18.25;;;;;14.02;70.69;102081.59;4908293;28;45356;-75
2021/09/02 04:11:04;;;;;;;;;22.75;20.50;;;;;14.01;70.66;102087.88;4912992;28;47071;-74
2021/09/02 04:13:29;;;;;;;;;27.00;21.75;;;;;14.00;71.02;102091.53;4909386;28;45340;-73
2021/09/02 04:15:54;;;;;;;;;27.75;19.50;;;;;13.97;70.70;102101.47;4913056;28;45505;-74
2021/09/02 04:18:20;;;;;;;;;28.50;23.50;;;;;13.94;70.97;102096.41;4931387;28;46241;-75
2021/09/02 04:20:45;;;;;;;;;25.50;20.50;;;;;13.94;70.75;102098.22;4904931;28;45688;-74
2021/09/02 04:23:11;;;;;;;;;24.25;21.50;;;;;13.94;70.97;102107.03;4910665;28;46099;-75
2021/09/02 04:25:36;;;;;;;;;30.50;22.75;;;;;13.93;70.67;102101.88;4909974;28;45486;-74
2021/09/02 04:28:02;;;;;;;;;27.00;22.00;;;;;13.92;70.81;102097.53;4909700;28;45499;-74
2021/09/02 04:30:27;;;;;;;;;30.00;22.25;;;;;13.90;71.20;102099.50;4908392;28;46611;-74
2021/09/02 04:32:55;;;;;;;;;31.25;25.00;;;;;13.87;71.18;102105.94;4906720;28;45847;-73
2021/09/02 04:35:21;;;;;;;;;28.50;20.25;;;;;13.85;70.95;102097.25;4911081;28;45519;-76
2021/09/02 04:37:47;;;;;;;;;24.25;21.75;;;;;13.84;71.48;102092.91;4924238;28;45443;-74
2021/09/02 04:40:14;;;;;;;;;25.50;20.75;;;;;13.81;71.98;102087.03;4913303;28;46486;-74
2021/09/02 04:42:40;;;;;;;;;25.50;20.75;;;;;13.77;71.93;102095.28;4909467;28;45408;-74
2021/09/02 04:45:06;;;;;;;;;28.50;21.75;;;;;13.75;71.43;102091.91;4908302;28;45626;-74
2021/09/02 04:47:32;;;;;;;;;30.75;24.75;;;;;13.74;71.92;102089.38;4907017;28;45529;-74
2021/09/02 04:49:57;;;;;;;;;27.50;26.00;;;;;13.73;71.38;102090.38;4910966;28;46101;-74
2021/09/02 04:52:23;;;;;;;;;30.50;23.75;;;;;13.73;71.37;102090.38;4910044;28;45527;-75
2021/09/02 04:54:48;;;;;;;;;24.00;19.00;;;;;13.74;71.65;102090.22;4909231;28;45487;-74
2021/09/02 04:57:18;;;;;;;;;33.00;24.75;;;;;13.73;71.71;102083.25;4917588;28;45452;-74
2021/09/02 04:59:43;;;;;;;;;30.00;24.50;;;;;13.72;71.42;102088.69;4923514;28;45419;-74
2021/09/02 05:02:09;;;;;;;;;27.00;24.00;;;;;13.73;71.75;102093.03;4925960;28;45664;-75
2021/09/02 05:04:34;;;;;;;;;31.75;22.75;;;;;13.72;71.87;102092.19;4919163;28;48415;-74
2021/09/02 05:06:59;;;;;;;;;29.00;27.00;;;;;13.71;71.71;102087.84;4917775;28;45468;-75
2021/09/02 05:09:25;;;;;;;;;33.00;27.75;;;;;13.72;71.57;102092.19;4910928;28;49702;-74
2021/09/02 05:11:50;;;;;;;;;33.00;27.75;;;;;13.70;71.74;102080.03;4914842;28;45444;-74
2021/09/02 05:14:15;;;;;;;;;35.50;27.00;;;;;13.69;71.47;102076.50;4918965;28;45682;-74
2021/09/02 05:16:41;;;;;;;;;29.50;26.25;;;;;13.71;71.62;102074.56;4911312;28;45532;-75
2021/09/02 05:19:06;;;;;;;;;32.50;26.25;;;;;13.73;71.52;102077.09;4908617;28;45336;-74
2021/09/02 05:21:31;;;;;;;;;40.75;31.00;;;;;13.73;71.25;102077.09;4908195;28;45900;-74
2021/09/02 05:23:56;;;;;;;;;37.25;29.00;;;;;13.73;71.78;102077.94;4907649;28;45537;-74
2021/09/02 05:26:22;;;;;;;;;32.00;28.50;;;;;13.75;71.71;102080.47;4906509;28;45638;-73
2021/09/02 05:28:47;;;;;;;;;35.50;29.25;;;;;13.77;71.56;102089.97;4914578;28;45994;-75
2021/09/02 05:31:13;;;;;;;;;43.50;32.50;;;;;13.80;71.38;102077.34;4917851;28;45557;-74
2021/09/02 05:33:38;;;;;;;;;36.75;27.00;;;;;13.81;71.23;102077.22;4927665;28;45848;-74
2021/09/02 05:36:04;;;;;;;;;35.25;30.00;;;;;13.82;71.61;102065.63;4924714;28;46012;-74
2021/09/02 05:38:30;;;;;;;;;36.75;28.25;;;;;13.82;71.30;102064.78;4924480;28;47289;-76
2021/09/02 05:40:56;;;;;;;;;40.00;30.25;;;;;13.84;71.59;102052.19;4921912;28;45796;-78
2021/09/02 05:43:21;;;;;;;;;34.75;29.00;;;;;13.89;71.15;102056.13;4916621;28;45686;-78
2021/09/02 05:45:47;;;;;;;;;34.00;28.25;;;;;13.92;71.80;102063.84;4930160;28;45680;-78
2021/09/02 05:48:13;;;;;;;;;36.50;29.00;;;;;13.97;70.89;102068.72;4921949;28;46168;-78
2021/09/02 05:50:38;;;;;;;;;38.50;28.75;;;;;14.04;70.86;102074.31;4914325;28;45766;-78
2021/09/02 05:53:04;;;;;;;;;37.50;27.25;;;;;14.05;70.68;102074.19;4914939;28;45507;-77
2021/09/02 05:55:29;;;;;;;;;34.25;26.75;;;;;14.09;70.42;102072.91;4926590;28;45561;-78
2021/09/02 05:57:55;;;;;;;;;30.50;25.00;;;;;14.19;70.86;102081.75;4931649;28;46476;-78
2021/09/02 06:00:20;;;;;;;;;33.50;28.75;;;;;14.23;70.29;102078.81;4919700;28;45446;-78
2021/09/02 06:02:45;;;;;;;;;35.50;28.25;;;;;14.30;70.15;102079.91;4933355;28;45775;-78
2021/09/02 06:05:11;;;;;;;;;28.75;24.75;;;;;14.35;69.92;102073.19;4923798;28;45403;-77
2021/09/02 06:07:36;;;;;;;;;34.00;27.50;;;;;14.38;69.48;102069.41;4934956;28;56885;-77
2021/09/02 06:10:03;;;;;;;;;24.75;21.00;;;;;14.45;70.24;102069.69;4932591;28;45666;-78
2021/09/02 06:12:29;;;;;;;;;33.25;23.00;;;;;14.56;69.37;102080.19;4936310;28;45519;-78
2021/09/02 06:14:54;;;;;;;;;30.25;20.25;;;;;14.61;69.36;102091.22;4920150;28;45659;-78
2021/09/02 06:17:19;;;;;;;;;30.75;23.75;;;;;14.65;68.98;102083.81;4923954;28;46172;-78
2021/09/02 06:19:45;;;;;;;;;30.00;21.00;;;;;14.73;68.87;102084.75;4934975;28;45526;-77
2021/09/02 06:22:10;;;;;;;;;28.00;22.75;;;;;14.81;68.51;102079.59;4935491;28;45516;-78
2021/09/02 06:24:35;;;;;;;;;32.50;23.25;;;;;14.90;68.07;102090.34;4935818;28;45548;-77
2021/09/02 06:27:01;;;;;;;;;28.50;22.25;;;;;14.96;67.99;102084.41;4936029;28;46303;-77
2021/09/02 06:29:26;;;;;;;;;30.75;25.25;;;;;15.01;67.88;102087.50;4923226;28;45576;-71
2021/09/02 06:31:52;;;;;;;;;32.50;22.75;;;;;15.10;67.75;102080.44;4925178;28;45755;-77
2021/09/02 06:34:17;;;;;;;;;30.25;24.75;;;;;15.18;67.90;102092.06;4924586;28;45388;-74
2021/09/02 06:36:43;;;;;;;;;24.50;20.25;;;;;15.32;67.24;102098.72;4934779;28;46411;-76
2021/09/02 06:39:09;;;;;;;;;34.50;27.50;;;;;15.39;67.05;102085.66;4906523;28;45281;-76
2021/09/02 06:41:35;;;;;;;;;36.25;25.75;;;;;15.52;66.67;102098.63;4903526;28;49312;-78
2021/09/02 06:44:00;;;;;;;;;26.25;22.25;;;;;15.59;66.33;102105.03;4914030;28;45540;-77
2021/09/02 06:46:26;;;;;;;;;26.50;23.50;;;;;15.66;66.32;102106.94;4909575;28;46955;-77
2021/09/02 06:48:51;;;;;;;;;24.25;22.75;;;;;15.77;66.37;102097.09;4909599;28;45952;-77
2021/09/02 06:51:16;;;;;;;;;29.50;21.00;;;;;15.93;65.91;102097.28;4911682;28;45399;-77
2021/09/02 06:53:42;;;;;;;;;32.50;27.00;;;;;16.07;65.35;102101.22;4906440;28;49061;-77
2021/09/02 06:56:08;;;;;;;;;38.25;26.75;;;;;16.19;65.46;102096.50;4914357;28;47037;-77
2021/09/02 06:58:33;;;;;;;;;31.25;24.25;;;;;16.38;64.67;102095.50;4910012;28;45500;-77
2021/09/02 07:00:59;;;;;;;;;28.75;25.75;;;;;16.61;63.83;102093.16;4911647;28;56025;-77
2021/09/02 07:03:24;;;;;;;;;27.75;24.00;;;;;16.95;63.52;102096.75;4918009;28;45511;-77
2021/09/02 07:05:49;;;;;;;;;35.25;25.75;;;;;17.10;62.54;102093.50;4919097;28;47031;-77
2021/09/02 07:08:15;;;;;;;;;35.00;27.50;;;;;17.12;62.33;102089.66;4910337;28;45513;-77
2021/09/02 07:10:40;;;;;;;;;28.75;23.50;;;;;17.14;62.32;102093.03;4908482;28;45421;-77
2021/09/02 07:13:06;;;;;;;;;35.75;23.25;;;;;17.24;62.21;102092.91;4908229;28;45502;-77
2021/09/02 07:15:32;;;;;;;;;31.00;23.00;;;;;17.80;61.24;102091.44;4911105;28;45566;-76
2021/09/02 07:17:58;;;;;;;;;17.75;17.00;;;;;18.34;60.49;102088.28;4931755;28;45432;-77
2021/09/02 07:20:23;;;;;;;;;28.00;25.25;;;;;18.94;57.58;102086.22;4906668;28;45452;-77
2021/09/02 07:22:48;;;;;;;;;30.00;24.75;;;;;19.07;57.88;102092.72;4918497;28;45531;-77
2021/09/02 07:25:14;;;;;;;;;30.75;26.50;;;;;19.81;58.23;102089.72;4932766;28;46065;-76
2021/09/02 07:27:40;;;;;;;;;31.50;24.25;;;;;21.61;54.51;102098.69;4919768;28;45940;-76
2021/09/02 07:30:06;;;;;;;;;28.75;24.00;;;;;22.62;51.48;102089.69;4917840;28;45429;-77
2021/09/02 07:32:33;;;;;;;;;27.00;24.25;;;;;22.43;51.02;102102.81;4913910;28;45337;-75
2021/09/02 07:34:58;;;;;;;;;33.00;26.25;;;;;22.05;51.21;102111.13;4917290;28;47291;-76
2021/09/02 07:37:24;;;;;;;;;30.00;24.25;;;;;21.89;51.96;102101.47;4926365;28;45783;-76
2021/09/02 07:39:49;;;;;;;;;30.50;25.75;;;;;21.73;51.47;102111.63;4922738;28;45396;-77
2021/09/02 07:42:14;;;;;;;;;25.00;19.00;;;;;21.52;51.67;102104.38;4923061;28;45718;-77
2021/09/02 07:44:40;;;;;;;;;29.50;21.25;;;;;21.44;52.05;102108.00;4928129;28;45843;-76
2021/09/02 07:47:06;;;;;;;;;26.50;20.00;;;;;21.43;51.79;102100.94;4954934;28;46924;-77
2021/09/02 07:49:31;;;;;;;;;29.50;22.50;;;;;21.46;52.35;102093.34;4921060;28;45453;-77
2021/09/02 07:51:56;;;;;;;;;30.00;25.50;;;;;22.31;50.21;102089.06;4911791;28;45380;-77
2021/09/02 07:54:22;;;;;;;;;27.75;23.25;;;;;23.61;49.18;102089.38;4910947;28;46891;-77
2021/09/02 07:56:48;;;;;;;;;27.00;20.75;;;;;24.97;48.39;102083.59;4914000;28;45900;-79
2021/09/02 07:59:13;;;;;;;;;23.25;20.25;;;;;27.78;38.80;102078.28;4912145;28;45432;-78
2021/09/02 08:01:38;;;;;;;;;24.00;21.25;;;;;30.67;40.04;102079.19;4909042;28;45779;-78
2021/09/02 08:04:04;;;;;;;;;22.25;21.50;;;;;33.52;36.42;102079.00;4909008;28;45445;-79
2021/09/02 08:06:30;;;;;;;;;21.75;20.25;;;;;35.80;32.79;102076.16;4908930;28;45363;-79
2021/09/02 08:08:55;;;;;;;;;24.50;20.75;;;;;37.66;31.42;102080.00;4910174;28;45613;-78
2021/09/02 08:11:21;;;;;;;;;21.75;19.00;;;;;39.28;27.60;102087.38;4920459;28;45645;-79
2021/09/02 08:13:46;;;;;;;;;26.75;21.00;;;;;40.12;25.55;102091.41;4938756;28;46948;-79
2021/09/02 08:16:11;;;;;;;;;24.00;21.00;;;;;40.90;26.23;102086.13;4920478;28;52485;-81
2021/09/02 08:18:37;;;;;;;;;22.75;20.75;;;;;41.70;21.56;102087.84;4918084;28;46079;-81
2021/09/02 08:21:02;;;;;;;;;26.00;20.50;;;;;41.78;23.33;102081.44;4922772;28;45525;-82
2021/09/02 08:23:28;;;;;;;;;25.00;19.00;;;;;42.09;20.81;102082.03;4918108;28;45800;-80
2021/09/02 08:25:55;;;;;;;;;20.75;18.25;;;;;42.45;23.07;102080.72;4918817;28;45407;-80
2021/09/02 08:28:21;;;;;;;;;20.00;17.50;;;;;43.60;22.03;102079.59;4920780;28;45388;-80
2021/09/02 08:30:46;;;;;;;;;18.50;17.00;;;;;44.22;20.70;102072.97;4918551;28;45533;-78
2021/09/02 08:33:12;;;;;;;;;21.25;18.50;;;;;44.87;20.51;102068.63;4914202;28;45625;-80
2021/09/02 08:35:38;;;;;;;;;21.50;17.75;;;;;45.73;20.41;102071.91;4916173;28;45502;-80
2021/09/02 08:38:08;;;;;;;;;21.00;20.00;;;;;46.14;18.32;102072.53;4921446;28;45445;-80
2021/09/02 08:40:37;;;;;;;;;22.75;19.00;;;;;46.50;18.96;102067.81;4921714;28;45518;-79
2021/09/02 08:43:03;;;;;;;;;18.50;16.25;;;;;46.97;13.06;102066.84;4923259;28;63706;-78
2021/09/02 08:45:31;;;;;;;;;25.50;18.00;;;;;46.17;16.37;102065.41;4917634;28;45528;-78
2021/09/02 08:47:57;;;;;;;;;18.25;16.25;;;;;45.68;16.96;102061.00;4915266;28;45712;-78
2021/09/02 08:50:25;;;;;;;;;18.75;17.75;;;;;46.15;16.88;102064.94;4917319;28;45937;-78
2021/09/02 08:52:51;;;;;;;;;21.00;15.50;;;;;46.31;16.64;102054.56;4917651;28;45484;-79
2021/09/02 08:55:17;;;;;;;;;18.25;17.00;;;;;46.71;15.48;102045.13;4918706;28;45986;-79
2021/09/02 08:57:46;;;;;;;;;19.00;15.75;;;;;46.66;16.53;102054.59;4929033;28;45340;-78
2021/09/02 09:00:12;;;;;;;;;19.50;19.50;;;;;46.84;16.37;102049.44;4925648;28;45759;-79
2021/09/02 09:02:41;;;;;;;;;19.00;17.50;;;;;47.10;16.59;102057.16;4922169;28;47279;-79
2021/09/02 09:05:09;;;;;;;;;19.75;17.00;;;;;46.62;13.32;102059.31;4923427;28;45528;-79
2021/09/02 09:07:45;;;;;;;;;17.50;14.75;;;;;45.87;15.40;102055.50;4924303;28;45427;-79
2021/09/02 09:10:14;;;;;;;;;19.25;16.50;;;;;45.37;13.75;102051.38;4924369;28;46026;-79
2021/09/02 09:12:46;;;;;;;;;20.25;17.25;;;;;44.84;15.70;102050.66;4916495;28;46839;-79
2021/09/02 09:15:19;;;;;;;;;17.75;16.50;;;;;45.13;16.00;102055.03;4911471;28;45498;-79
2021/09/02 09:17:46;;;;;;;;;20.75;16.00;;;;;45.61;16.27;102038.47;4917098;28;45356;-79
2021/09/02 09:20:12;;;;;;;;;15.00;14.00;;;;;46.05;15.93;102044.00;4930160;28;45441;-79
2021/09/02 09:22:37;;;;;;;;;23.25;19.75;;;;;46.09;16.32;102031.72;4911030;28;47456;-79
2021/09/02 09:25:05;;;;;;;;;21.00;17.50;;;;;46.36;16.39;102043.16;4914818;28;45533;-80
2021/09/02 09:27:50;;;;;;;;;16.75;16.75;;;;;46.75;16.10;102037.66;4913529;28;45544;-79
2021/09/02 09:30:26;;;;;;;;;20.50;19.00;;;;;47.16;16.03;102026.88;4918553;28;45570;-79
2021/09/02 09:33:05;;;;;;;;;16.00;15.50;;;;;47.37;15.61;102026.50;4915203;28;47109;-79
2021/09/02 09:35:31;;;;;;;;;18.50;17.00;;;;;47.28;15.07;102020.31;4913033;28;45500;-78
2021/09/02 09:38:08;;;;;;;;;15.50;14.75;;;;;47.25;15.60;102027.47;4918038;28;45432;-77
2021/09/02 09:40:39;;;;;;;;;18.25;15.50;;;;;47.36;15.46;102031.28;4913552;28;45463;-78
2021/09/02 09:43:34;;;;;;;;;16.25;16.00;;;;;47.22;15.16;102027.41;4914858;28;46312;-78
2021/09/02 09:45:59;;;;;;;;;17.00;15.50;;;;;46.93;15.36;102021.22;4908775;28;45634;-78
2021/09/02 09:48:32;;;;;;;;;14.50;14.00;;;;;46.05;15.51;102019.69;4909866;28;45644;-78
2021/09/02 09:51:19;;;;;;;;;15.75;15.50;;;;;45.30;16.56;102014.91;4912386;28;46109;-78
2021/09/02 09:53:51;;;;;;;;;15.75;14.25;;;;;44.25;17.05;102012.16;4909464;28;47217;-78
2021/09/02 09:56:23;;;;;;;;;16.75;15.25;;;;;43.18;18.00;102012.88;4912926;28;45691;-77
2021/09/02 09:58:51;;;;;;;;;17.00;14.00;;;;;42.35;18.23;102017.22;4911881;28;45602;-81
2021/09/02 10:01:17;;;;;;;;;11.50;9.75;;;;;41.50;17.62;102022.72;4910949;28;54257;-77
2021/09/02 10:03:43;;;;;;;;;16.50;14.75;;;;;40.06;20.10;102004.09;4911538;28;46285;-78
2021/09/02 10:06:11;;;;;;;;;14.75;14.00;;;;;39.35;19.82;102007.63;4912397;28;51259;-78
2021/09/02 10:08:41;;;;;;;;;16.25;14.75;;;;;38.92;21.50;102005.28;4910034;28;45668;-75
2021/09/02 10:11:08;;;;;;;;;16.75;13.25;;;;;38.66;20.04;102002.28;4911749;28;46023;-79
2021/09/02 10:13:35;;;;;;;;;16.25;14.25;;;;;37.87;21.60;101992.22;4900679;28;50690;-79
2021/09/02 10:16:01;;;;;;;;;15.50;14.25;;;;;37.23;21.44;102005.69;4907556;28;45508;-81
2021/09/02 10:18:29;;;;;;;;;13.00;12.50;;;;;36.66;23.12;101989.16;4908071;28;45568;-79
2021/09/02 10:20:55;;;;;;;;;14.75;14.50;;;;;36.52;22.15;101991.75;4909894;28;45533;-79
2021/09/02 10:23:24;;;;;;;;;18.25;16.00;;;;;36.35;22.96;101984.03;4877451;28;47558;-78
2021/09/02 10:25:49;;;;;;;;;15.25;14.75;;;;;36.30;23.80;101983.25;4877614;28;45575;-78
2021/09/02 10:28:22;;;;;;;;;17.25;15.00;;;;;36.02;23.29;101982.16;4883555;28;45621;-78
2021/09/02 10:30:54;;;;;;;;;15.25;11.00;;;;;35.87;23.49;101983.97;4879524;28;46892;-75
2021/09/02 10:33:33;;;;;;;;;16.00;14.50;;;;;35.72;24.08;101979.44;4875760;29;45596;-76
2021/09/02 10:35:59;;;;;;;;;12.50;12.50;;;;;35.85;24.57;101979.88;4874650;28;45590;-76
2021/09/02 10:38:55;;;;;;;;;13.00;12.25;;;;;36.07;23.90;101963.66;4875243;28;45429;-76
2021/09/02 10:41:36;;;;;;;;;13.25;12.00;;;;;36.10;24.37;101971.34;4879166;28;45792;-76
2021/09/02 10:44:06;;;;;;;;;16.50;15.00;;;;;35.68;23.47;101966.56;4877802;29;45625;-76
2021/09/02 10:46:35;;;;;;;;;13.00;12.25;;;;;35.06;24.66;101971.69;4886819;28;45440;-76
2021/09/02 10:49:14;;;;;;;;;13.25;13.25;;;;;35.32;24.92;101972.34;4884181;28;45598;-76
2021/09/02 10:51:42;;;;;;;;;16.50;14.00;;;;;35.60;25.00;101973.50;4873329;28;48399;-76
2021/09/02 10:54:09;;;;;;;;;13.00;13.00;;;;;35.92;24.90;101977.59;4876256;28;46083;-76
2021/09/02 10:56:56;;;;;;;;;16.50;14.25;;;;;36.32;24.25;101970.81;4889026;28;46433;-77
2021/09/02 10:59:34;;;;;;;;;14.75;13.00;;;;;36.53;22.74;101963.13;4888507;28;45731;-77
2021/09/02 11:01:59;;;;;;;;;16.50;13.75;;;;;36.01;23.22;101964.03;4881018;29;45488;-77
2021/09/02 11:04:25;;;;;;;;;13.50;11.25;;;;;35.86;24.57;101978.78;4887058;28;46561;-76
2021/09/02 11:06:50;;;;;;;;;16.75;14.00;;;;;36.02;24.10;101965.66;4876150;28;45854;-77
2021/09/02 11:09:29;;;;;;;;;14.50;9.75;;;;;35.85;23.55;101971.63;4916842;28;45936;-76